Time;durP1;ratioP1;P1;durP2;ratioP2;P2;SDS_P1;SDS_P2;PMS_P1;PMS_P2;Temp;Humidity;BMP_temperature;BMP_pressure;BME280_temperature;BME280_humidity;BME280_pressure;Samples;Min_cycle;Max_cycle;Signal;HPM_P1;HPM_P2
2023/02/25 00:00:29;;;;;;;;;;;12.10;99.90;;;;;;5012079;28;20295;-68
2023/02/25 00:02:55;;;;;;;;;;;12.10;99.90;;;;;;5011467;28;19939;-69
2023/02/25 00:05:21;;;;;;;;;;;12.10;99.90;;;;;;5011837;28;19909;-68
2023/02/25 00:07:47;;;;;;;;;;;12.20;99.90;;;;;;5011523;28;19913;-70
2023/02/25 00:10:16;;;;;;;;;;;12.20;99.90;;;;;;5010327;28;19916;-68
2023/02/25 00:12:42;;;;;;;;;;;12.20;99.90;;;;;;5011076;28;19929;-68
2023/02/25 00:15:08;;;;;;;;;;;12.10;99.90;;;;;;4995168;28;19957;-69
2023/02/25 00:17:34;;;;;;;;;;;12.00;99.90;;;;;;4991181;28;19917;-69
2023/02/25 00:20:00;;;;;;;;;;;12.00;99.90;;;;;;4998497;28;19913;-68
2023/02/25 00:22:27;;;;;;;;;;;12.10;99.90;;;;;;4996546;28;19956;-69
2023/02/25 00:24:53;;;;;;;;;;;12.00;99.90;;;;;;4998860;28;19953;-69
2023/02/25 00:27:19;;;;;;;;;;;12.00;99.90;;;;;;4997022;28;19925;-68
2023/02/25 00:29:44;;;;;;;;;;;12.00;99.90;;;;;;5002135;28;19928;-69
2023/02/25 00:32:10;;;;;;;;;;;12.10;99.90;;;;;;4995113;28;19964;-69
2023/02/25 00:34:36;;;;;;;;;;;12.10;99.90;;;;;;4996383;28;19913;-71
2023/02/25 00:37:02;;;;;;;;;;;12.10;99.90;;;;;;4993827;28;19922;-69
2023/02/25 00:39:45;;;;;;;;;;;12.10;99.90;;;;;;4994960;28;19924;-69
2023/02/25 00:42:15;;;;;;;;;;;12.10;99.90;;;;;;4994278;28;19920;-69
2023/02/25 00:44:47;;;;;;;;;;;12.00;99.90;;;;;;4997395;28;19921;-74
2023/02/25 00:47:14;;;;;;;;;;;12.10;99.90;;;;;;4999561;28;20031;-69
2023/02/25 00:49:40;;;;;;;;;;;12.20;99.90;;;;;;4994339;28;20371;-68
2023/02/25 00:52:05;;;;;;;;;;;12.30;99.90;;;;;;4996450;28;20063;-68
2023/02/25 00:54:34;;;;;;;;;;;12.30;99.90;;;;;;4995271;28;19917;-68
2023/02/25 00:57:00;;;;;;;;;;;12.20;99.90;;;;;;5011865;28;19979;-68
2023/02/25 00:59:26;;;;;;;;;;;12.10;99.90;;;;;;4995646;28;20020;-68
2023/02/25 01:01:52;;;;;;;;;;;12.10;99.90;;;;;;4995318;28;20075;-68
2023/02/25 01:04:17;;;;;;;;;;;12.10;99.90;;;;;;4994639;28;19917;-71
2023/02/25 01:06:43;;;;;;;;;;;12.00;99.90;;;;;;4995088;28;19913;-70
2023/02/25 01:09:12;;;;;;;;;;;12.00;99.90;;;;;;4999202;28;19924;-69
2023/02/25 01:11:39;;;;;;;;;;;12.10;99.90;;;;;;4993305;28;20040;-68
2023/02/25 01:14:07;;;;;;;;;;;12.10;99.90;;;;;;4994764;28;19921;-68
2023/02/25 01:16:33;;;;;;;;;;;12.10;99.90;;;;;;4997036;28;20004;-68
2023/02/25 01:19:01;;;;;;;;;;;12.20;99.90;;;;;;5006712;28;19926;-68
2023/02/25 01:21:28;;;;;;;;;;;12.10;99.90;;;;;;5001831;28;19960;-69
2023/02/25 01:23:58;;;;;;;;;;;12.10;99.90;;;;;;4996500;28;20000;-69
2023/02/25 01:26:25;;;;;;;;;;;12.00;99.90;;;;;;4996805;28;19913;-68
2023/02/25 01:28:50;;;;;;;;;;;12.10;99.90;;;;;;5000925;28;19926;-68
2023/02/25 01:31:17;;;;;;;;;;;12.10;99.90;;;;;;4999308;28;19967;-69
2023/02/25 01:33:43;;;;;;;;;;;12.00;99.90;;;;;;5000410;28;20387;-69
2023/02/25 01:36:09;;;;;;;;;;;12.00;99.90;;;;;;5000130;28;19933;-69
2023/02/25 01:38:35;;;;;;;;;;;12.20;99.90;;;;;;4999273;28;19939;-68
2023/02/25 01:41:01;;;;;;;;;;;12.10;99.90;;;;;;4996923;28;19935;-67
2023/02/25 01:43:27;;;;;;;;;;;12.10;99.90;;;;;;4997271;28;20291;-68
2023/02/25 01:45:53;;;;;;;;;;;12.10;99.90;;;;;;5011329;28;20008;-69
2023/02/25 01:48:24;;;;;;;;;;;12.10;99.90;;;;;;5017453;28;19909;-68
2023/02/25 01:50:51;;;;;;;;;;;12.10;99.90;;;;;;5016781;28;19918;-68
2023/02/25 01:53:20;;;;;;;;;;;12.20;99.90;;;;;;5019419;28;19909;-68
2023/02/25 01:55:46;;;;;;;;;;;12.20;99.90;;;;;;5019086;28;19948;-68
2023/02/25 01:58:12;;;;;;;;;;;12.20;99.90;;;;;;5018926;28;19914;-69
2023/02/25 02:00:38;;;;;;;;;;;12.20;99.90;;;;;;5020070;28;20315;-69
2023/02/25 02:03:04;;;;;;;;;;;12.20;99.90;;;;;;5020399;28;19910;-68
2023/02/25 02:05:39;;;;;;;;;;;12.20;99.90;;;;;;5019579;28;19929;-68
2023/02/25 02:08:06;;;;;;;;;;;12.30;99.90;;;;;;5018969;28;19910;-69
2023/02/25 02:10:31;;;;;;;;;;;12.20;99.90;;;;;;5018486;28;19917;-69
2023/02/25 02:12:57;;;;;;;;;;;12.40;99.90;;;;;;5019291;28;19917;-69
2023/02/25 02:15:23;;;;;;;;;;;12.30;99.90;;;;;;5002285;28;19975;-69
2023/02/25 02:17:48;;;;;;;;;;;12.30;99.90;;;;;;4999508;28;20381;-69
2023/02/25 02:20:23;;;;;;;;;;;12.30;99.90;;;;;;5008534;28;19920;-69
2023/02/25 02:23:08;;;;;;;;;;;12.20;99.90;;;;;;5002686;28;19948;-69
2023/02/25 02:25:52;;;;;;;;;;;12.20;99.90;;;;;;5002295;28;20039;-69
2023/02/25 02:28:20;;;;;;;;;;;12.30;99.90;;;;;;5003393;28;19921;-69
2023/02/25 02:30:46;;;;;;;;;;;12.30;99.90;;;;;;5002249;28;19961;-69
2023/02/25 02:33:20;;;;;;;;;;;12.30;99.90;;;;;;5002031;28;19971;-69
2023/02/25 02:35:49;;;;;;;;;;;12.30;99.90;;;;;;5008831;28;19933;-69
2023/02/25 02:38:33;;;;;;;;;;;12.30;99.90;;;;;;4999023;28;19918;-69
2023/02/25 02:41:11;;;;;;;;;;;12.40;99.90;;;;;;5001527;28;19917;-69
2023/02/25 02:43:42;;;;;;;;;;;12.40;99.90;;;;;;5002639;28;20020;-68
2023/02/25 02:46:14;;;;;;;;;;;12.40;99.90;;;;;;4998742;28;19956;-69
2023/02/25 02:49:00;;;;;;;;;;;12.40;99.90;;;;;;5003768;28;19914;-69
2023/02/25 02:51:33;;;;;;;;;;;12.40;99.90;;;;;;5015483;28;19928;-69
2023/02/25 02:54:00;;;;;;;;;;;12.50;99.90;;;;;;5009528;28;19921;-69
2023/02/25 02:56:29;;;;;;;;;;;12.50;99.90;;;;;;5005665;28;19913;-69
2023/02/25 02:58:58;;;;;;;;;;;12.50;99.90;;;;;;5003866;28;19980;-70
2023/02/25 03:01:27;;;;;;;;;;;12.60;99.90;;;;;;5003393;28;19938;-69
2023/02/25 03:04:01;;;;;;;;;;;12.60;99.90;;;;;;5002005;28;19920;-69
2023/02/25 03:06:32;;;;;;;;;;;12.60;99.90;;;;;;5001293;28;19927;-68
2023/02/25 03:09:03;;;;;;;;;;;12.60;99.90;;;;;;5017177;28;19949;-69
2023/02/25 03:11:29;;;;;;;;;;;12.60;99.90;;;;;;5001167;28;19918;-69
2023/02/25 03:13:55;;;;;;;;;;;12.60;99.90;;;;;;4999447;28;19917;-69
2023/02/25 03:16:24;;;;;;;;;;;12.60;99.90;;;;;;5000611;28;19917;-69
2023/02/25 03:18:53;;;;;;;;;;;12.60;99.90;;;;;;5001020;28;19924;-69
2023/02/25 03:21:21;;;;;;;;;;;12.50;99.90;;;;;;5007212;28;19898;-69
2023/02/25 03:23:47;;;;;;;;;;;12.50;99.90;;;;;;5022675;28;19997;-69
2023/02/25 03:26:12;;;;;;;;;;;12.60;99.90;;;;;;5006600;28;19918;-69
2023/02/25 03:28:42;;;;;;;;;;;12.60;99.90;;;;;;5006494;28;20186;-70
2023/02/25 03:31:22;;;;;;;;;;;12.60;99.90;;;;;;5003814;28;19991;-69
2023/02/25 03:34:00;;;;;;;;;;;12.60;99.90;;;;;;4999122;28;19918;-70
2023/02/25 03:36:30;;;;;;;;;;;12.60;99.90;;;;;;4995090;28;19917;-69
2023/02/25 03:38:58;;;;;;;;;;;12.70;99.90;;;;;;4994110;28;19969;-69
2023/02/25 03:41:27;;;;;;;;;;;12.60;99.90;;;;;;4993512;28;20438;-65
2023/02/25 03:43:55;;;;;;;;;;;12.60;99.90;;;;;;4995201;28;19921;-69
2023/02/25 03:46:21;;;;;;;;;;;12.60;99.90;;;;;;5006314;28;19940;-69
2023/02/25 03:48:48;;;;;;;;;;;12.60;99.90;;;;;;5011087;28;19920;-69
2023/02/25 03:51:16;;;;;;;;;;;12.60;99.90;;;;;;5009450;28;19910;-69
2023/02/25 03:53:41;;;;;;;;;;;12.60;99.90;;;;;;5013932;28;19910;-69
2023/02/25 03:56:08;;;;;;;;;;;12.60;99.90;;;;;;5014945;28;19914;-67
2023/02/25 03:58:37;;;;;;;;;;;12.60;99.90;;;;;;5015831;28;19913;-70
2023/02/25 04:01:05;;;;;;;;;;;12.60;99.90;;;;;;5011634;28;19916;-68
2023/02/25 04:03:31;;;;;;;;;;;12.60;99.90;;;;;;5016085;28;19918;-69
2023/02/25 04:05:56;;;;;;;;;;;12.60;99.90;;;;;;5015586;28;19936;-68
2023/02/25 04:08:22;;;;;;;;;;;12.60;99.90;;;;;;5013553;28;19909;-68
2023/02/25 04:10:48;;;;;;;;;;;12.60;99.90;;;;;;5014345;28;19952;-69
2023/02/25 04:13:14;;;;;;;;;;;12.60;99.90;;;;;;5012521;28;19920;-69
2023/02/25 04:15:40;;;;;;;;;;;12.70;99.90;;;;;;4995495;28;19914;-68
2023/02/25 04:18:06;;;;;;;;;;;12.70;99.90;;;;;;4995991;28;19917;-69
2023/02/25 04:20:32;;;;;;;;;;;12.60;99.90;;;;;;5004537;28;19913;-69
2023/02/25 04:22:59;;;;;;;;;;;12.70;99.90;;;;;;4994806;28;19928;-69
2023/02/25 04:25:24;;;;;;;;;;;12.70;99.90;;;;;;4997604;28;20004;-69
2023/02/25 04:27:50;;;;;;;;;;;12.60;99.90;;;;;;4998155;28;19990;-68
2023/02/25 04:30:18;;;;;;;;;;;12.60;99.90;;;;;;4995264;28;20283;-69
2023/02/25 04:32:44;;;;;;;;;;;12.60;99.90;;;;;;4994600;28;19922;-69
2023/02/25 04:35:12;;;;;;;;;;;12.60;99.90;;;;;;4994331;28;19914;-69
2023/02/25 04:37:39;;;;;;;;;;;12.60;99.90;;;;;;4996451;28;19926;-70
2023/02/25 04:40:10;;;;;;;;;;;12.70;99.90;;;;;;4995406;28;19926;-69
2023/02/25 04:42:36;;;;;;;;;;;12.70;99.90;;;;;;4998493;28;20299;-73
2023/02/25 04:45:03;;;;;;;;;;;12.70;99.90;;;;;;4998415;28;19913;-69
2023/02/25 04:47:28;;;;;;;;;;;12.70;99.90;;;;;;4994780;28;19917;-69
2023/02/25 04:49:54;;;;;;;;;;;12.70;99.90;;;;;;4996493;28;19921;-68
2023/02/25 04:52:20;;;;;;;;;;;12.70;99.90;;;;;;4999811;28;19917;-70
2023/02/25 04:54:45;;;;;;;;;;;12.60;99.90;;;;;;4998367;28;20147;-70
2023/02/25 04:57:11;;;;;;;;;;;12.60;99.90;;;;;;4995804;28;19928;-69
2023/02/25 04:59:37;;;;;;;;;;;12.70;99.90;;;;;;4998066;28;19921;-70
2023/02/25 05:02:03;;;;;;;;;;;12.70;99.90;;;;;;4995718;28;19921;-69
2023/02/25 05:04:28;;;;;;;;;;;12.70;99.90;;;;;;4997575;28;19921;-69
2023/02/25 05:06:57;;;;;;;;;;;12.70;99.90;;;;;;4993349;28;19914;-70
2023/02/25 05:09:23;;;;;;;;;;;12.70;99.90;;;;;;4995365;28;20376;-70
2023/02/25 05:11:48;;;;;;;;;;;12.60;99.90;;;;;;5012979;28;19928;-70
2023/02/25 05:14:14;;;;;;;;;;;12.60;99.90;;;;;;4997142;28;19928;-70
2023/02/25 05:16:40;;;;;;;;;;;12.50;99.90;;;;;;4996346;28;19914;-70
2023/02/25 05:19:05;;;;;;;;;;;12.40;99.90;;;;;;4996040;28;19984;-69
2023/02/25 05:21:31;;;;;;;;;;;12.40;99.90;;;;;;4996957;28;19972;-69
2023/02/25 05:23:57;;;;;;;;;;;12.30;99.90;;;;;;5000921;28;19961;-69
2023/02/25 05:26:23;;;;;;;;;;;12.30;99.90;;;;;;4994508;28;19932;-70
2023/02/25 05:28:53;;;;;;;;;;;12.20;99.90;;;;;;5005303;28;19975;-69
2023/02/25 05:31:19;;;;;;;;;;;12.20;99.90;;;;;;4998996;28;20012;-69
2023/02/25 05:33:45;;;;;;;;;;;12.10;99.90;;;;;;4995577;28;19917;-70
2023/02/25 05:36:13;;;;;;;;;;;12.10;99.90;;;;;;4994618;28;19921;-70
2023/02/25 05:38:39;;;;;;;;;;;12.20;99.90;;;;;;4995403;28;19973;-70
2023/02/25 05:41:05;;;;;;;;;;;12.20;99.90;;;;;;4993815;28;19918;-70
2023/02/25 05:43:31;;;;;;;;;;;12.20;99.90;;;;;;4996105;28;19919;-70
2023/02/25 05:45:58;;;;;;;;;;;12.20;99.90;;;;;;5014383;28;20005;-70
2023/02/25 05:48:24;;;;;;;;;;;12.20;99.90;;;;;;5012761;28;19909;-70
2023/02/25 05:50:50;;;;;;;;;;;12.20;99.90;;;;;;5012074;28;19993;-69
2023/02/25 05:53:17;;;;;;;;;;;12.30;99.90;;;;;;5014628;28;19913;-69
2023/02/25 05:55:42;;;;;;;;;;;12.30;99.90;;;;;;5012157;28;19914;-70
2023/02/25 05:58:08;;;;;;;;;;;12.30;99.90;;;;;;5013316;28;19983;-70
2023/02/25 06:00:35;;;;;;;;;;;12.30;99.90;;;;;;5014228;28;19980;-70
2023/02/25 06:03:00;;;;;;;;;;;12.30;99.90;;;;;;5014084;28;19910;-70
2023/02/25 06:05:29;;;;;;;;;;;12.30;99.90;;;;;;5013626;28;19916;-69
2023/02/25 06:07:56;;;;;;;;;;;12.20;99.90;;;;;;5012089;28;19999;-70
2023/02/25 06:10:22;;;;;;;;;;;12.20;99.90;;;;;;5014603;28;20006;-70
2023/02/25 06:12:48;;;;;;;;;;;12.10;99.90;;;;;;5014545;28;19909;-70
2023/02/25 06:15:14;;;;;;;;;;;12.10;99.90;;;;;;5003145;28;19921;-69
2023/02/25 06:17:42;;;;;;;;;;;12.10;99.90;;;;;;4993637;28;20018;-70
2023/02/25 06:20:08;;;;;;;;;;;12.20;99.90;;;;;;4997829;28;19922;-70
2023/02/25 06:22:34;;;;;;;;;;;12.10;99.90;;;;;;4996651;28;19914;-70
2023/02/25 06:25:00;;;;;;;;;;;12.00;99.90;;;;;;4998050;28;19936;-70
2023/02/25 06:27:25;;;;;;;;;;;12.00;99.90;;;;;;4993754;28;19921;-70
2023/02/25 06:29:51;;;;;;;;;;;12.00;99.90;;;;;;4994212;28;19988;-70
2023/02/25 06:32:18;;;;;;;;;;;11.90;99.90;;;;;;4997027;28;20003;-70
2023/02/25 06:34:44;;;;;;;;;;;11.90;99.90;;;;;;4994081;28;19928;-70
2023/02/25 06:37:09;;;;;;;;;;;12.00;99.90;;;;;;4993373;28;20080;-71
2023/02/25 06:39:35;;;;;;;;;;;11.90;99.90;;;;;;5005747;28;19956;-70
2023/02/25 06:42:01;;;;;;;;;;;11.90;99.90;;;;;;5006859;28;19917;-70
2023/02/25 06:44:28;;;;;;;;;;;11.90;99.90;;;;;;4994312;28;19920;-70
2023/02/25 06:46:56;;;;;;;;;;;11.80;99.90;;;;;;4995119;28;19917;-70
2023/02/25 06:49:23;;;;;;;;;;;11.80;99.90;;;;;;4999755;28;20020;-70
2023/02/25 06:51:48;;;;;;;;;;;11.80;99.90;;;;;;4993849;28;19957;-70
2023/02/25 06:54:17;;;;;;;;;;;11.80;99.90;;;;;;4996526;28;19937;-70
2023/02/25 06:56:43;;;;;;;;;;;11.80;99.90;;;;;;4995843;28;19914;-70
2023/02/25 06:59:08;;;;;;;;;;;12.00;99.90;;;;;;4997141;28;19936;-70
2023/02/25 07:01:35;;;;;;;;;;;12.10;99.90;;;;;;4994162;28;20378;-70
2023/02/25 07:04:01;;;;;;;;;;;12.10;99.90;;;;;;4997196;28;19913;-70
2023/02/25 07:06:27;;;;;;;;;;;12.10;99.90;;;;;;4994652;28;20431;-70
2023/02/25 07:08:52;;;;;;;;;;;12.00;99.90;;;;;;4996379;28;20343;-70
2023/02/25 07:11:18;;;;;;;;;;;12.00;99.90;;;;;;5004936;28;19914;-70
2023/02/25 07:13:48;;;;;;;;;;;11.90;99.90;;;;;;5000381;28;19921;-74
2023/02/25 07:16:14;;;;;;;;;;;11.90;99.90;;;;;;4995465;28;19957;-70
2023/02/25 07:18:40;;;;;;;;;;;11.90;99.90;;;;;;4999672;28;19924;-70
2023/02/25 07:21:06;;;;;;;;;;;12.00;99.90;;;;;;4994888;28;19933;-70
2023/02/25 07:23:32;;;;;;;;;;;12.00;99.90;;;;;;5000291;28;19922;-70
2023/02/25 07:26:01;;;;;;;;;;;12.00;99.90;;;;;;5009821;28;19914;-70
2023/02/25 07:28:26;;;;;;;;;;;12.00;99.90;;;;;;4998433;28;20414;-70
2023/02/25 07:30:52;;;;;;;;;;;12.10;99.90;;;;;;5000046;28;19917;-70
2023/02/25 07:33:18;;;;;;;;;;;12.10;99.90;;;;;;4992674;28;19913;-70
2023/02/25 07:35:43;;;;;;;;;;;12.00;99.90;;;;;;4997093;28;19924;-67
2023/02/25 07:38:11;;;;;;;;;;;12.10;99.90;;;;;;4993977;28;20031;-69
2023/02/25 07:40:39;;;;;;;;;;;12.10;99.90;;;;;;4992840;28;19922;-68
2023/02/25 07:43:06;;;;;;;;;;;12.10;99.90;;;;;;4992251;28;19933;-68
2023/02/25 07:45:31;;;;;;;;;;;12.10;99.90;;;;;;5008572;28;19968;-69
2023/02/25 07:47:57;;;;;;;;;;;12.20;99.90;;;;;;5007996;28;20347;-69
2023/02/25 07:50:22;;;;;;;;;;;12.20;99.90;;;;;;5010842;28;20357;-69
2023/02/25 07:52:49;;;;;;;;;;;12.20;99.90;;;;;;5012371;28;20455;-69
2023/02/25 07:55:14;;;;;;;;;;;12.30;99.90;;;;;;5009535;28;19920;-68
2023/02/25 07:57:40;;;;;;;;;;;12.30;99.90;;;;;;5011484;28;19917;-68
2023/02/25 08:00:09;;;;;;;;;;;12.20;99.90;;;;;;5011453;28;20260;-69
2023/02/25 08:02:35;;;;;;;;;;;12.30;99.90;;;;;;5011566;28;19932;-68
2023/02/25 08:05:01;;;;;;;;;;;12.40;99.90;;;;;;5007378;28;20008;-69
2023/02/25 08:07:28;;;;;;;;;;;12.40;99.90;;;;;;5012404;28;19957;-68
2023/02/25 08:09:53;;;;;;;;;;;12.60;99.90;;;;;;5012280;28;19910;-69
2023/02/25 08:12:19;;;;;;;;;;;12.60;99.90;;;;;;5011660;28;19914;-68
2023/02/25 08:14:45;;;;;;;;;;;12.80;99.90;;;;;;5000860;28;19913;-68
2023/02/25 08:17:11;;;;;;;;;;;12.80;99.90;;;;;;4991150;28;19913;-69
2023/02/25 08:19:37;;;;;;;;;;;12.90;99.90;;;;;;4991746;28;19913;-69
2023/02/25 08:22:03;;;;;;;;;;;12.90;99.90;;;;;;4999785;28;20027;-69
2023/02/25 08:24:29;;;;;;;;;;;13.00;99.90;;;;;;4994570;28;20000;-67
2023/02/25 08:26:55;;;;;;;;;;;12.90;99.90;;;;;;4991557;28;19921;-69
2023/02/25 08:29:21;;;;;;;;;;;13.10;99.90;;;;;;4994641;28;19960;-68
2023/02/25 08:31:47;;;;;;;;;;;13.20;99.90;;;;;;5010359;28;19919;-69
2023/02/25 08:34:13;;;;;;;;;;;13.40;99.90;;;;;;4993186;28;20008;-68
2023/02/25 08:36:38;;;;;;;;;;;13.60;99.90;;;;;;4992589;28;20017;-68
2023/02/25 08:39:04;;;;;;;;;;;13.50;99.90;;;;;;4994619;28;19983;-69
2023/02/25 08:41:30;;;;;;;;;;;13.60;99.90;;;;;;4997398;28;20052;-68
2023/02/25 08:43:57;;;;;;;;;;;13.60;99.90;;;;;;4997579;28;20005;-68
2023/02/25 08:46:24;;;;;;;;;;;13.50;99.90;;;;;;4995207;28;20004;-67
2023/02/25 08:48:50;;;;;;;;;;;13.50;99.90;;;;;;5003343;28;20004;-68
2023/02/25 08:51:16;;;;;;;;;;;13.40;99.90;;;;;;4995384;28;19948;-69
2023/02/25 08:53:42;;;;;;;;;;;13.40;99.90;;;;;;4995021;28;19953;-68
2023/02/25 08:56:08;;;;;;;;;;;13.20;99.90;;;;;;4994035;28;19914;-68
2023/02/25 08:58:34;;;;;;;;;;;13.20;99.90;;;;;;5006327;28;19957;-68
2023/02/25 09:01:00;;;;;;;;;;;13.20;99.90;;;;;;4996190;28;19949;-68
2023/02/25 09:03:26;;;;;;;;;;;13.20;99.90;;;;;;4995353;28;19914;-69
2023/02/25 09:05:52;;;;;;;;;;;13.20;99.90;;;;;;5013591;28;19979;-69
2023/02/25 09:08:18;;;;;;;;;;;13.00;99.90;;;;;;5003729;28;19913;-69
2023/02/25 09:10:44;;;;;;;;;;;13.10;99.90;;;;;;5011462;28;19920;-69
2023/02/25 09:13:10;;;;;;;;;;;13.10;99.90;;;;;;5011404;28;19914;-69
2023/02/25 09:15:36;;;;;;;;;;;13.20;99.90;;;;;;5008426;28;19918;-70
2023/02/25 09:18:02;;;;;;;;;;;13.10;99.90;;;;;;5005669;28;19924;-69
2023/02/25 09:20:27;;;;;;;;;;;13.10;99.90;;;;;;5002699;28;19913;-69
2023/02/25 09:22:53;;;;;;;;;;;13.10;99.90;;;;;;5013172;28;19913;-69
2023/02/25 09:25:19;;;;;;;;;;;13.00;99.90;;;;;;5010713;28;19921;-69
2023/02/25 09:27:45;;;;;;;;;;;13.10;99.90;;;;;;5010640;28;19944;-69
2023/02/25 09:30:11;;;;;;;;;;;13.00;99.90;;;;;;5010331;28;19965;-69
2023/02/25 09:32:36;;;;;;;;;;;13.00;99.90;;;;;;5011513;28;20375;-68
2023/02/25 09:35:02;;;;;;;;;;;12.90;99.90;;;;;;5012753;28;19914;-69
2023/02/25 09:37:28;;;;;;;;;;;12.90;99.90;;;;;;5007889;28;19925;-69
2023/02/25 09:39:53;;;;;;;;;;;12.90;99.90;;;;;;5008806;28;20558;-69
2023/02/25 09:42:21;;;;;;;;;;;13.00;99.90;;;;;;5011808;28;19914;-70
2023/02/25 09:44:48;;;;;;;;;;;13.10;99.90;;;;;;5013244;28;19976;-69
2023/02/25 09:47:19;;;;;;;;;;;13.10;99.90;;;;;;5009344;28;19975;-71
2023/02/25 09:49:45;;;;;;;;;;;13.00;99.90;;;;;;5014628;28;19936;-69
2023/02/25 09:52:17;;;;;;;;;;;13.00;99.90;;;;;;5012526;28;19909;-70
2023/02/25 09:54:47;;;;;;;;;;;13.10;99.90;;;;;;5008703;28;19910;-69
2023/02/25 09:57:21;;;;;;;;;;;13.10;99.90;;;;;;5011937;28;20403;-70
2023/02/25 09:59:47;;;;;;;;;;;13.30;99.90;;;;;;5014383;28;19917;-69
2023/02/25 10:02:35;;;;;;;;;;;13.30;99.90;;;;;;5014355;28;20360;-69
2023/02/25 10:05:16;;;;;;;;;;;13.40;99.90;;;;;;5009212;28;19909;-70
2023/02/25 10:08:08;;;;;;;;;;;13.30;99.90;;;;;;5014418;28;19921;-69
2023/02/25 10:10:46;;;;;;;;;;;13.50;99.90;;;;;;4983504;28;19929;-69
2023/02/25 10:13:33;;;;;;;;;;;13.50;99.90;;;;;;5012846;28;19914;-69
2023/02/25 10:16:02;;;;;;;;;;;13.60;99.90;;;;;;5013467;28;19929;-69
2023/02/25 10:18:39;;;;;;;;;;;13.70;99.90;;;;;;5013725;28;19952;-70
2023/02/25 10:21:21;;;;;;;;;;;13.90;99.90;;;;;;5012922;28;19940;-70
2023/02/25 10:23:46;;;;;;;;;;;14.00;99.90;;;;;;5012254;28;19913;-68
2023/02/25 10:26:23;;;;;;;;;;;13.90;99.90;;;;;;5012625;28;19939;-70
2023/02/25 10:28:52;;;;;;;;;;;13.80;99.90;;;;;;5013188;28;19913;-69
2023/02/25 10:31:19;;;;;;;;;;;13.90;99.90;;;;;;5012380;28;19913;-70
2023/02/25 10:33:46;;;;;;;;;;;13.90;99.90;;;;;;5012253;28;19968;-69
2023/02/25 10:36:14;;;;;;;;;;;14.00;99.90;;;;;;5013192;28;19920;-69
2023/02/25 10:38:48;;;;;;;;;;;14.10;99.90;;;;;;5008149;28;19936;-70
2023/02/25 10:41:14;;;;;;;;;;;14.20;99.90;;;;;;5012995;28;19921;-70
2023/02/25 10:43:40;;;;;;;;;;;14.30;99.90;;;;;;5012309;28;19910;-70
2023/02/25 10:46:10;;;;;;;;;;;14.40;99.90;;;;;;5013538;28;19936;-70
2023/02/25 10:48:37;;;;;;;;;;;14.50;99.90;;;;;;5013569;28;19913;-69
2023/02/25 10:51:10;;;;;;;;;;;14.50;99.90;;;;;;5013785;28;19909;-69
2023/02/25 10:53:37;;;;;;;;;;;14.40;99.90;;;;;;5012419;28;20413;-69
2023/02/25 10:56:03;;;;;;;;;;;14.50;99.90;;;;;;5009902;28;19914;-69
2023/02/25 10:58:35;;;;;;;;;;;14.50;99.90;;;;;;5010993;28;19953;-69
2023/02/25 11:01:06;;;;;;;;;;;14.60;99.90;;;;;;5007667;28;19956;-69
2023/02/25 11:03:35;;;;;;;;;;;14.80;99.90;;;;;;5010366;28;19914;-69
2023/02/25 11:06:09;;;;;;;;;;;14.70;99.90;;;;;;5008801;28;20004;-69
2023/02/25 11:08:35;;;;;;;;;;;14.70;99.90;;;;;;5012325;28;20449;-69
2023/02/25 11:11:04;;;;;;;;;;;14.70;99.90;;;;;;5008045;28;19944;-70
2023/02/25 11:13:33;;;;;;;;;;;14.70;99.90;;;;;;5011366;28;20733;-70
2023/02/25 11:16:01;;;;;;;;;;;14.80;99.90;;;;;;5007650;28;19920;-69
2023/02/25 11:18:29;;;;;;;;;;;14.80;99.90;;;;;;5010832;28;19918;-69
2023/02/25 11:20:56;;;;;;;;;;;14.90;99.90;;;;;;5012360;28;20003;-69
2023/02/25 11:23:23;;;;;;;;;;;14.90;99.90;;;;;;5012651;28;19909;-69
2023/02/25 11:25:52;;;;;;;;;;;14.90;99.90;;;;;;5005932;28;19917;-69
2023/02/25 11:28:23;;;;;;;;;;;14.90;99.90;;;;;;5012461;28;20402;-69
2023/02/25 11:30:49;;;;;;;;;;;15.00;99.90;;;;;;5007285;28;19964;-69
2023/02/25 11:33:24;;;;;;;;;;;14.80;99.90;;;;;;5011585;28;19921;-69
2023/02/25 11:35:54;;;;;;;;;;;15.00;99.90;;;;;;5011573;28;19921;-70
2023/02/25 11:38:24;;;;;;;;;;;15.00;99.90;;;;;;5009894;28;20414;-69
2023/02/25 11:40:49;;;;;;;;;;;14.90;99.90;;;;;;5011960;28;20303;-70
2023/02/25 11:43:35;;;;;;;;;;;15.00;99.90;;;;;;5009749;28;19920;-69
2023/02/25 11:46:02;;;;;;;;;;;15.10;99.90;;;;;;5012390;28;19910;-69
2023/02/25 11:48:28;;;;;;;;;;;15.20;99.90;;;;;;5010881;28;20000;-69
2023/02/25 11:51:20;;;;;;;;;;;15.10;99.90;;;;;;5012846;28;20011;-69
2023/02/25 11:54:04;;;;;;;;;;;15.20;99.90;;;;;;5009436;28;20287;-69
2023/02/25 11:56:32;;;;;;;;;;;15.30;99.90;;;;;;5009899;28;20037;-69
2023/02/25 11:59:09;;;;;;;;;;;15.30;99.90;;;;;;5012455;28;20004;-69
2023/02/25 12:01:34;;;;;;;;;;;15.20;99.90;;;;;;5012177;28;19910;-69
2023/02/25 12:04:09;;;;;;;;;;;15.30;99.90;;;;;;5007102;28;19932;-69
2023/02/25 12:06:34;;;;;;;;;;;15.40;99.90;;;;;;5012126;28;19910;-69
2023/02/25 12:09:19;;;;;;;;;;;15.30;99.90;;;;;;5007455;28;19914;-69
2023/02/25 12:11:47;;;;;;;;;;;15.30;99.90;;;;;;5008985;28;19917;-69
2023/02/25 12:14:19;;;;;;;;;;;15.30;99.90;;;;;;5008293;28;19922;-69
2023/02/25 12:17:03;;;;;;;;;;;15.30;99.90;;;;;;5016122;28;19980;-69
2023/02/25 12:19:47;;;;;;;;;;;15.30;99.90;;;;;;5014886;28;19921;-70
2023/02/25 12:22:32;;;;;;;;;;;15.30;99.90;;;;;;5005466;28;20364;-69
2023/02/25 12:25:04;;;;;;;;;;;15.30;99.90;;;;;;5009632;28;19973;-69
2023/02/25 12:27:49;;;;;;;;;;;15.30;99.90;;;;;;5010741;28;19983;-69
2023/02/25 12:30:20;;;;;;;;;;;15.30;99.90;;;;;;5005469;28;19918;-69
2023/02/25 12:33:18;;;;;;;;;;;15.40;99.90;;;;;;5013202;28;19921;-69
2023/02/25 12:36:02;;;;;;;;;;;15.20;99.90;;;;;;4996278;28;19917;-69
2023/02/25 12:38:44;;;;;;;;;;;15.30;99.90;;;;;;5011113;28;19918;-69
2023/02/25 12:41:16;;;;;;;;;;;15.30;99.90;;;;;;5003472;28;20475;-69
2023/02/25 12:44:01;;;;;;;;;;;15.40;99.90;;;;;;4998872;28;20345;-70
2023/02/25 12:46:32;;;;;;;;;;;15.40;99.90;;;;;;5012400;28;19924;-70
2023/02/25 12:49:09;;;;;;;;;;;15.40;99.90;;;;;;5013324;28;19913;-69
2023/02/25 12:51:38;;;;;;;;;;;15.30;99.90;;;;;;5011734;28;19921;-69
2023/02/25 12:54:06;;;;;;;;;;;15.30;99.90;;;;;;5011569;28;19996;-69
2023/02/25 12:56:32;;;;;;;;;;;15.30;99.90;;;;;;5007136;28;20032;-70
2023/02/25 12:58:58;;;;;;;;;;;15.30;99.90;;;;;;5007610;28;20383;-70
2023/02/25 13:01:32;;;;;;;;;;;15.40;99.90;;;;;;5003339;28;19925;-70
2023/02/25 13:04:17;;;;;;;;;;;15.50;99.90;;;;;;5002179;28;19949;-69
2023/02/25 13:07:01;;;;;;;;;;;15.40;99.90;;;;;;5009583;28;19918;-69
2023/02/25 13:09:27;;;;;;;;;;;15.20;99.90;;;;;;5010920;28;19929;-69
2023/02/25 13:12:05;;;;;;;;;;;15.10;99.90;;;;;;5005312;28;20287;-70
2023/02/25 13:14:49;;;;;;;;;;;15.00;99.90;;;;;;5005799;28;19920;-70
2023/02/25 13:17:24;;;;;;;;;;;15.00;99.90;;;;;;5003015;28;19932;-70
2023/02/25 13:20:17;;;;;;;;;;;14.80;99.90;;;;;;5014077;28;19918;-70
2023/02/25 13:22:56;;;;;;;;;;;14.60;99.90;;;;;;5007623;28;19913;-70
2023/02/25 13:25:37;;;;;;;;;;;14.50;99.90;;;;;;5006615;28;19964;-70
2023/02/25 13:28:21;;;;;;;;;;;14.40;99.90;;;;;;5003109;28;20008;-70
2023/02/25 13:30:47;;;;;;;;;;;14.20;99.90;;;;;;5008336;28;19921;-69
2023/02/25 13:33:31;;;;;;;;;;;14.20;99.90;;;;;;5004769;28;19941;-69
2023/02/25 13:35:58;;;;;;;;;;;14.10;99.90;;;;;;5008207;28;20410;-69
2023/02/25 13:38:35;;;;;;;;;;;14.00;99.90;;;;;;5013318;28;19922;-69
2023/02/25 13:41:17;;;;;;;;;;;14.10;99.90;;;;;;5010355;28;19945;-69
2023/02/25 13:44:01;;;;;;;;;;;14.00;99.90;;;;;;5013316;28;19910;-69
2023/02/25 13:46:46;;;;;;;;;;;13.90;99.90;;;;;;5006424;28;19937;-69
2023/02/25 13:49:17;;;;;;;;;;;13.70;99.90;;;;;;5011964;28;19913;-70
2023/02/25 13:52:15;;;;;;;;;;;13.60;99.90;;;;;;5009310;28;19917;-69
2023/02/25 13:54:42;;;;;;;;;;;13.50;99.90;;;;;;4999456;28;19924;-69
2023/02/25 13:57:22;;;;;;;;;;;13.30;99.90;;;;;;5012095;28;19913;-70
2023/02/25 13:59:51;;;;;;;;;;;13.20;99.90;;;;;;5011843;28;19939;-70
2023/02/25 14:02:23;;;;;;;;;;;13.30;99.90;;;;;;5011461;28;19928;-70
2023/02/25 14:04:48;;;;;;;;;;;13.50;99.90;;;;;;5013653;28;20535;-70
2023/02/25 14:07:20;;;;;;;;;;;13.50;99.90;;;;;;5005963;28;19945;-70
2023/02/25 14:10:09;;;;;;;;;;;13.40;99.90;;;;;;5013144;28;20051;-70
2023/02/25 14:12:37;;;;;;;;;;;13.30;99.90;;;;;;5010512;28;19914;-70
2023/02/25 14:15:09;;;;;;;;;;;13.20;99.90;;;;;;5011997;28;19920;-69
2023/02/25 14:17:53;;;;;;;;;;;13.10;99.90;;;;;;5011532;28;19996;-70
2023/02/25 14:20:19;;;;;;;;;;;13.20;99.90;;;;;;5011806;28;19913;-70
2023/02/25 14:22:51;;;;;;;;;;;13.30;99.90;;;;;;5011307;28;19921;-70
2023/02/25 14:25:26;;;;;;;;;;;13.40;99.90;;;;;;5013120;28;20031;-70
2023/02/25 14:28:04;;;;;;;;;;;13.50;99.90;;;;;;5014314;28;20036;-70